Details for Etihad Airways at OMAA




Go Back


Latest METAR
Local Time

OMAA 240000Z 09009KT 050V110 CAVOK 23/07 Q1009 NOSIG

24/02/2018, 04:16:33

Description
Results
Etihad Airways Logo
Number of Pilots based at OMAA
0 Pilots Based here
Number of Etihad Airways Flights Departed from OMAA
0 Flights Departed
Number of Etihad Airways Flights Arrived at OMAA
1 Flights Arrived
Number of Etihad Airways Schedules Departing from OMAA
154 Schedules
Number of Etihad Airways Schedules Arriving at OMAA
150 Schedules
Number of Etihad Airways Schedules Departing from OMAA availible today
139 Schedules Today
Number of Etihad Airways Schedules Arriving at OMAA availible today
141 Schedules Today
Average Landing Rate at OMAA
-437 fpm
Etihad Airways Average Landing Rate at OMAA
-301 fpm
Total Fuel Purchased at OMAA by Etihad Airways
0.00 kgs / 0.00 lbs

Pilots Based at OMAA


Pilot ID
Pilot Name
Pilot Rank
No. of Flights
No. of Flying Hours
There are no pilots assigned to this hub!   Will you be the first?
Content